sensor_id;sensor_type;location;lat;lon;timestamp;P1;durP1;ratioP1;P2;durP2;ratioP2
48849;SDS011;63210;53.370;6.770;2022-11-15T00:00:57;34.00;;;21.98;;
48849;SDS011;63210;53.370;6.770;2022-11-15T00:03:25;34.20;;;22.30;;
48849;SDS011;63210;53.370;6.770;2022-11-15T00:05:51;33.83;;;22.75;;
48849;SDS011;63210;53.370;6.770;2022-11-15T00:08:19;33.40;;;21.40;;
48849;SDS011;63210;53.370;6.770;2022-11-15T00:10:57;35.13;;;22.25;;
48849;SDS011;63210;53.370;6.770;2022-11-15T00:13:23;34.40;;;22.40;;
48849;SDS011;63210;53.370;6.770;2022-11-15T00:15:48;36.83;;;22.98;;
48849;SDS011;63210;53.370;6.770;2022-11-15T00:18:14;33.40;;;20.90;;
48849;SDS011;63210;53.370;6.770;2022-11-15T00:20:42;34.67;;;21.98;;
48849;SDS011;63210;53.370;6.770;2022-11-15T00:23:08;33.45;;;21.80;;
48849;SDS011;63210;53.370;6.770;2022-11-15T00:25:34;34.72;;;21.08;;
48849;SDS011;63210;53.370;6.770;2022-11-15T00:28:00;34.95;;;20.98;;
48849;SDS011;63210;53.370;6.770;2022-11-15T00:30:28;31.60;;;20.75;;
48849;SDS011;63210;53.370;6.770;2022-11-15T00:32:54;30.95;;;19.85;;
48849;SDS011;63210;53.370;6.770;2022-11-15T00:35:19;33.88;;;21.08;;
48849;SDS011;63210;53.370;6.770;2022-11-15T00:37:48;34.78;;;22.13;;
48849;SDS011;63210;53.370;6.770;2022-11-15T00:40:13;36.30;;;21.35;;
48849;SDS011;63210;53.370;6.770;2022-11-15T00:42:41;34.55;;;22.17;;
48849;SDS011;63210;53.370;6.770;2022-11-15T00:45:07;35.13;;;21.17;;
48849;SDS011;63210;53.370;6.770;2022-11-15T00:47:35;32.80;;;20.23;;
48849;SDS011;63210;53.370;6.770;2022-11-15T00:50:00;31.15;;;20.25;;
48849;SDS011;63210;53.370;6.770;2022-11-15T00:52:26;34.08;;;20.20;;
48849;SDS011;63210;53.370;6.770;2022-11-15T00:54:51;32.13;;;20.88;;
48849;SDS011;63210;53.370;6.770;2022-11-15T00:57:16;35.58;;;21.42;;
48849;SDS011;63210;53.370;6.770;2022-11-15T00:59:42;33.95;;;20.65;;
48849;SDS011;63210;53.370;6.770;2022-11-15T01:02:07;32.67;;;20.42;;
48849;SDS011;63210;53.370;6.770;2022-11-15T01:04:32;33.83;;;20.52;;
48849;SDS011;63210;53.370;6.770;2022-11-15T01:06:58;35.08;;;20.45;;
48849;SDS011;63210;53.370;6.770;2022-11-15T01:09:23;34.70;;;21.13;;
48849;SDS011;63210;53.370;6.770;2022-11-15T01:11:51;34.17;;;22.00;;
48849;SDS011;63210;53.370;6.770;2022-11-15T01:14:17;33.50;;;21.30;;
48849;SDS011;63210;53.370;6.770;2022-11-15T01:16:42;34.25;;;22.25;;
48849;SDS011;63210;53.370;6.770;2022-11-15T01:19:10;35.10;;;22.30;;
48849;SDS011;63210;53.370;6.770;2022-11-15T01:21:35;35.50;;;21.33;;
48849;SDS011;63210;53.370;6.770;2022-11-15T01:24:00;33.95;;;20.70;;
48849;SDS011;63210;53.370;6.770;2022-11-15T01:26:26;32.30;;;20.33;;
48849;SDS011;63210;53.370;6.770;2022-11-15T01:28:51;37.58;;;21.83;;
48849;SDS011;63210;53.370;6.770;2022-11-15T01:31:18;34.67;;;20.95;;
48849;SDS011;63210;53.370;6.770;2022-11-15T01:33:44;31.65;;;20.52;;
48849;SDS011;63210;53.370;6.770;2022-11-15T01:36:11;32.28;;;21.10;;
48849;SDS011;63210;53.370;6.770;2022-11-15T01:38:39;35.22;;;21.13;;
48849;SDS011;63210;53.370;6.770;2022-11-15T01:55:30;39.13;;;26.92;;
48849;SDS011;63210;53.370;6.770;2022-11-15T01:57:57;40.53;;;25.27;;
48849;SDS011;63210;53.370;6.770;2022-11-15T02:00:22;38.90;;;24.10;;
48849;SDS011;63210;53.370;6.770;2022-11-15T02:02:48;41.28;;;26.08;;
48849;SDS011;63210;53.370;6.770;2022-11-15T02:05:13;32.88;;;21.95;;
48849;SDS011;63210;53.370;6.770;2022-11-15T02:07:38;34.38;;;20.77;;
48849;SDS011;63210;53.370;6.770;2022-11-15T02:10:09;39.40;;;24.17;;
48849;SDS011;63210;53.370;6.770;2022-11-15T02:12:34;35.03;;;21.23;;
48849;SDS011;63210;53.370;6.770;2022-11-15T02:15:00;38.47;;;23.00;;
48849;SDS011;63210;53.370;6.770;2022-11-15T02:30:23;29.98;;;20.25;;
48849;SDS011;63210;53.370;6.770;2022-11-15T02:32:53;38.95;;;23.40;;
48849;SDS011;63210;53.370;6.770;2022-11-15T02:35:23;34.95;;;19.02;;
48849;SDS011;63210;53.370;6.770;2022-11-15T02:37:53;35.75;;;22.05;;
48849;SDS011;63210;53.370;6.770;2022-11-15T02:42:50;33.43;;;21.27;;
48849;SDS011;63210;53.370;6.770;2022-11-15T02:45:36;35.03;;;20.05;;
48849;SDS011;63210;53.370;6.770;2022-11-15T02:48:02;32.38;;;21.27;;
48849;SDS011;63210;53.370;6.770;2022-11-15T02:50:29;31.95;;;19.95;;
48849;SDS011;63210;53.370;6.770;2022-11-15T02:52:54;33.42;;;20.73;;
48849;SDS011;63210;53.370;6.770;2022-11-15T03:06:32;36.08;;;20.73;;
48849;SDS011;63210;53.370;6.770;2022-11-15T03:09:04;36.08;;;21.20;;
48849;SDS011;63210;53.370;6.770;2022-11-15T03:11:32;40.40;;;21.40;;
48849;SDS011;63210;53.370;6.770;2022-11-15T03:16:36;33.28;;;19.60;;
48849;SDS011;63210;53.370;6.770;2022-11-15T03:21:30;37.75;;;21.85;;
48849;SDS011;63210;53.370;6.770;2022-11-15T03:23:57;36.47;;;20.38;;
48849;SDS011;63210;53.370;6.770;2022-11-15T03:26:24;40.72;;;22.20;;
48849;SDS011;63210;53.370;6.770;2022-11-15T03:28:54;35.65;;;20.35;;
48849;SDS011;63210;53.370;6.770;2022-11-15T03:31:21;35.33;;;19.60;;
48849;SDS011;63210;53.370;6.770;2022-11-15T03:34:06;37.53;;;20.90;;
48849;SDS011;63210;53.370;6.770;2022-11-15T03:36:33;36.50;;;20.73;;
48849;SDS011;63210;53.370;6.770;2022-11-15T03:39:00;39.25;;;20.95;;
48849;SDS011;63210;53.370;6.770;2022-11-15T03:41:33;37.72;;;20.40;;
48849;SDS011;63210;53.370;6.770;2022-11-15T03:46:39;35.25;;;20.38;;
48849;SDS011;63210;53.370;6.770;2022-11-15T03:49:09;38.83;;;21.83;;
48849;SDS011;63210;53.370;6.770;2022-11-15T03:51:35;36.08;;;19.65;;
48849;SDS011;63210;53.370;6.770;2022-11-15T03:54:02;37.37;;;19.87;;
48849;SDS011;63210;53.370;6.770;2022-11-15T03:56:27;35.78;;;20.52;;
48849;SDS011;63210;53.370;6.770;2022-11-15T03:58:52;36.83;;;18.30;;
48849;SDS011;63210;53.370;6.770;2022-11-15T04:01:18;36.15;;;19.95;;
48849;SDS011;63210;53.370;6.770;2022-11-15T04:03:43;37.40;;;19.70;;
48849;SDS011;63210;53.370;6.770;2022-11-15T04:06:08;36.67;;;19.43;;
48849;SDS011;63210;53.370;6.770;2022-11-15T04:08:33;34.80;;;19.95;;
48849;SDS011;63210;53.370;6.770;2022-11-15T04:10:59;37.28;;;19.48;;
48849;SDS011;63210;53.370;6.770;2022-11-15T04:13:24;35.10;;;19.70;;
48849;SDS011;63210;53.370;6.770;2022-11-15T04:15:49;34.00;;;18.42;;
48849;SDS011;63210;53.370;6.770;2022-11-15T04:18:14;34.53;;;20.00;;
48849;SDS011;63210;53.370;6.770;2022-11-15T04:20:39;36.45;;;20.40;;
48849;SDS011;63210;53.370;6.770;2022-11-15T04:23:23;34.42;;;18.75;;
48849;SDS011;63210;53.370;6.770;2022-11-15T04:26:11;39.70;;;19.63;;
48849;SDS011;63210;53.370;6.770;2022-11-15T04:28:37;36.55;;;18.40;;
48849;SDS011;63210;53.370;6.770;2022-11-15T04:31:22;41.42;;;20.52;;
48849;SDS011;63210;53.370;6.770;2022-11-15T04:33:47;43.90;;;20.73;;
48849;SDS011;63210;53.370;6.770;2022-11-15T04:36:12;41.33;;;21.77;;
48849;SDS011;63210;53.370;6.770;2022-11-15T04:38:56;41.53;;;21.52;;
48849;SDS011;63210;53.370;6.770;2022-11-15T04:41:21;52.63;;;24.25;;
48849;SDS011;63210;53.370;6.770;2022-11-15T04:43:46;45.35;;;22.17;;
48849;SDS011;63210;53.370;6.770;2022-11-15T04:46:12;56.60;;;23.63;;
48849;SDS011;63210;53.370;6.770;2022-11-15T04:48:37;54.50;;;23.80;;
48849;SDS011;63210;53.370;6.770;2022-11-15T04:51:02;52.90;;;22.98;;
48849;SDS011;63210;53.370;6.770;2022-11-15T04:53:27;52.78;;;23.73;;
48849;SDS011;63210;53.370;6.770;2022-11-15T04:55:53;51.73;;;23.27;;
48849;SDS011;63210;53.370;6.770;2022-11-15T04:58:18;51.60;;;24.30;;
48849;SDS011;63210;53.370;6.770;2022-11-15T05:00:43;61.05;;;27.00;;
48849;SDS011;63210;53.370;6.770;2022-11-15T05:03:09;61.72;;;27.83;;
48849;SDS011;63210;53.370;6.770;2022-11-15T05:05:53;54.13;;;25.40;;
48849;SDS011;63210;53.370;6.770;2022-11-15T05:08:18;67.83;;;30.17;;
48849;SDS011;63210;53.370;6.770;2022-11-15T05:10:43;54.77;;;26.93;;
48849;SDS011;63210;53.370;6.770;2022-11-15T05:13:08;56.53;;;26.13;;
48849;SDS011;63210;53.370;6.770;2022-11-15T05:15:33;52.33;;;25.07;;
48849;SDS011;63210;53.370;6.770;2022-11-15T05:17:59;49.60;;;23.63;;
48849;SDS011;63210;53.370;6.770;2022-11-15T05:20:25;54.42;;;23.20;;
48849;SDS011;63210;53.370;6.770;2022-11-15T05:22:50;46.25;;;22.50;;
48849;SDS011;63210;53.370;6.770;2022-11-15T05:25:15;47.17;;;22.67;;
48849;SDS011;63210;53.370;6.770;2022-11-15T05:27:41;50.05;;;24.15;;
48849;SDS011;63210;53.370;6.770;2022-11-15T05:30:06;48.45;;;23.42;;
48849;SDS011;63210;53.370;6.770;2022-11-15T05:32:31;47.97;;;22.60;;
48849;SDS011;63210;53.370;6.770;2022-11-15T05:34:57;52.38;;;24.05;;
48849;SDS011;63210;53.370;6.770;2022-11-15T05:37:22;52.80;;;24.37;;
48849;SDS011;63210;53.370;6.770;2022-11-15T05:39:47;57.42;;;23.58;;
48849;SDS011;63210;53.370;6.770;2022-11-15T05:42:13;57.43;;;25.93;;
48849;SDS011;63210;53.370;6.770;2022-11-15T05:44:39;56.75;;;22.75;;
48849;SDS011;63210;53.370;6.770;2022-11-15T05:47:05;55.78;;;24.65;;
48849;SDS011;63210;53.370;6.770;2022-11-15T05:49:33;63.33;;;24.77;;
48849;SDS011;63210;53.370;6.770;2022-11-15T05:52:02;66.82;;;25.02;;
48849;SDS011;63210;53.370;6.770;2022-11-15T05:54:28;76.43;;;28.13;;
48849;SDS011;63210;53.370;6.770;2022-11-15T05:56:53;72.22;;;27.20;;
48849;SDS011;63210;53.370;6.770;2022-11-15T05:59:19;73.55;;;26.38;;
48849;SDS011;63210;53.370;6.770;2022-11-15T06:01:45;77.47;;;28.50;;
48849;SDS011;63210;53.370;6.770;2022-11-15T06:04:10;81.53;;;29.15;;
48849;SDS011;63210;53.370;6.770;2022-11-15T06:06:36;69.77;;;29.17;;
48849;SDS011;63210;53.370;6.770;2022-11-15T06:09:01;83.40;;;29.63;;
48849;SDS011;63210;53.370;6.770;2022-11-15T06:11:26;87.43;;;31.13;;
48849;SDS011;63210;53.370;6.770;2022-11-15T06:13:51;107.87;;;32.40;;
48849;SDS011;63210;53.370;6.770;2022-11-15T06:16:16;103.03;;;32.60;;
48849;SDS011;63210;53.370;6.770;2022-11-15T06:18:42;83.80;;;30.67;;
48849;SDS011;63210;53.370;6.770;2022-11-15T06:21:07;74.53;;;28.77;;
48849;SDS011;63210;53.370;6.770;2022-11-15T06:23:33;106.63;;;33.47;;
48849;SDS011;63210;53.370;6.770;2022-11-15T06:25:58;103.03;;;35.05;;
48849;SDS011;63210;53.370;6.770;2022-11-15T06:28:24;86.25;;;33.22;;
48849;SDS011;63210;53.370;6.770;2022-11-15T06:30:49;89.68;;;31.83;;
48849;SDS011;63210;53.370;6.770;2022-11-15T06:33:15;85.30;;;30.87;;
48849;SDS011;63210;53.370;6.770;2022-11-15T06:35:40;106.13;;;39.38;;
48849;SDS011;63210;53.370;6.770;2022-11-15T06:38:06;101.13;;;36.53;;
48849;SDS011;63210;53.370;6.770;2022-11-15T06:40:35;110.38;;;33.17;;
48849;SDS011;63210;53.370;6.770;2022-11-15T06:43:00;95.90;;;37.60;;
48849;SDS011;63210;53.370;6.770;2022-11-15T06:45:26;104.38;;;35.88;;
48849;SDS011;63210;53.370;6.770;2022-11-15T06:47:51;89.80;;;32.47;;
48849;SDS011;63210;53.370;6.770;2022-11-15T06:50:16;133.03;;;46.27;;
48849;SDS011;63210;53.370;6.770;2022-11-15T06:52:42;131.47;;;39.37;;
48849;SDS011;63210;53.370;6.770;2022-11-15T06:55:07;124.40;;;38.72;;
48849;SDS011;63210;53.370;6.770;2022-11-15T06:57:33;101.25;;;38.40;;
48849;SDS011;63210;53.370;6.770;2022-11-15T06:59:58;103.43;;;37.00;;
48849;SDS011;63210;53.370;6.770;2022-11-15T07:02:23;103.03;;;36.63;;
48849;SDS011;63210;53.370;6.770;2022-11-15T07:04:48;131.50;;;40.50;;
48849;SDS011;63210;53.370;6.770;2022-11-15T07:07:14;107.30;;;38.47;;
48849;SDS011;63210;53.370;6.770;2022-11-15T07:09:39;112.63;;;38.20;;
48849;SDS011;63210;53.370;6.770;2022-11-15T07:12:04;117.93;;;41.00;;
48849;SDS011;63210;53.370;6.770;2022-11-15T07:14:29;126.70;;;39.60;;
48849;SDS011;63210;53.370;6.770;2022-11-15T07:16:55;95.88;;;35.30;;
48849;SDS011;63210;53.370;6.770;2022-11-15T07:19:20;100.68;;;35.38;;
48849;SDS011;63210;53.370;6.770;2022-11-15T07:21:45;122.90;;;42.77;;
48849;SDS011;63210;53.370;6.770;2022-11-15T07:24:11;94.03;;;32.90;;
48849;SDS011;63210;53.370;6.770;2022-11-15T07:26:36;116.30;;;38.55;;
48849;SDS011;63210;53.370;6.770;2022-11-15T07:29:02;113.07;;;37.30;;
48849;SDS011;63210;53.370;6.770;2022-11-15T07:31:27;125.13;;;47.20;;
48849;SDS011;63210;53.370;6.770;2022-11-15T07:33:52;255.07;;;155.93;;
48849;SDS011;63210;53.370;6.770;2022-11-15T07:36:17;104.07;;;40.23;;
48849;SDS011;63210;53.370;6.770;2022-11-15T07:38:43;134.25;;;58.88;;
48849;SDS011;63210;53.370;6.770;2022-11-15T07:41:08;129.60;;;48.25;;
48849;SDS011;63210;53.370;6.770;2022-11-15T07:43:34;107.50;;;42.05;;
48849;SDS011;63210;53.370;6.770;2022-11-15T07:46:03;104.55;;;36.97;;
48849;SDS011;63210;53.370;6.770;2022-11-15T07:48:29;98.40;;;38.45;;
48849;SDS011;63210;53.370;6.770;2022-11-15T07:50:54;95.47;;;36.60;;
48849;SDS011;63210;53.370;6.770;2022-11-15T07:53:20;89.13;;;35.28;;
48849;SDS011;63210;53.370;6.770;2022-11-15T07:55:45;84.17;;;33.40;;
48849;SDS011;63210;53.370;6.770;2022-11-15T07:58:11;102.63;;;39.63;;
48849;SDS011;63210;53.370;6.770;2022-11-15T08:00:36;84.20;;;32.42;;
48849;SDS011;63210;53.370;6.770;2022-11-15T08:03:09;88.93;;;37.20;;
48849;SDS011;63210;53.370;6.770;2022-11-15T08:05:35;92.75;;;41.83;;
48849;SDS011;63210;53.370;6.770;2022-11-15T08:08:00;76.75;;;32.13;;
48849;SDS011;63210;53.370;6.770;2022-11-15T08:10:28;67.90;;;32.28;;
48849;SDS011;63210;53.370;6.770;2022-11-15T08:13:01;72.20;;;34.78;;
48849;SDS011;63210;53.370;6.770;2022-11-15T08:15:26;77.35;;;34.90;;
48849;SDS011;63210;53.370;6.770;2022-11-15T08:17:58;73.70;;;31.08;;
48849;SDS011;63210;53.370;6.770;2022-11-15T08:20:24;69.22;;;31.63;;
48849;SDS011;63210;53.370;6.770;2022-11-15T08:22:50;63.13;;;30.52;;
48849;SDS011;63210;53.370;6.770;2022-11-15T08:25:15;62.25;;;31.92;;
48849;SDS011;63210;53.370;6.770;2022-11-15T08:27:40;59.00;;;28.40;;
48849;SDS011;63210;53.370;6.770;2022-11-15T08:30:06;62.70;;;29.87;;
48849;SDS011;63210;53.370;6.770;2022-11-15T08:32:32;54.03;;;30.20;;
48849;SDS011;63210;53.370;6.770;2022-11-15T08:34:57;51.50;;;29.30;;
48849;SDS011;63210;53.370;6.770;2022-11-15T08:37:22;54.17;;;29.97;;
48849;SDS011;63210;53.370;6.770;2022-11-15T08:39:48;49.43;;;27.53;;
48849;SDS011;63210;53.370;6.770;2022-11-15T08:42:13;52.97;;;30.67;;
48849;SDS011;63210;53.370;6.770;2022-11-15T08:44:39;101.22;;;74.50;;
48849;SDS011;63210;53.370;6.770;2022-11-15T08:47:05;50.22;;;30.67;;
48849;SDS011;63210;53.370;6.770;2022-11-15T08:49:30;51.37;;;28.17;;
48849;SDS011;63210;53.370;6.770;2022-11-15T08:51:55;48.57;;;31.47;;
48849;SDS011;63210;53.370;6.770;2022-11-15T08:54:20;48.77;;;26.13;;
48849;SDS011;63210;53.370;6.770;2022-11-15T08:56:46;45.22;;;24.73;;
48849;SDS011;63210;53.370;6.770;2022-11-15T08:59:11;43.85;;;25.77;;
48849;SDS011;63210;53.370;6.770;2022-11-15T09:01:36;39.17;;;24.33;;
48849;SDS011;63210;53.370;6.770;2022-11-15T09:04:01;42.25;;;26.48;;
48849;SDS011;63210;53.370;6.770;2022-11-15T09:06:27;51.38;;;34.78;;
48849;SDS011;63210;53.370;6.770;2022-11-15T09:08:52;46.27;;;26.70;;
48849;SDS011;63210;53.370;6.770;2022-11-15T09:11:17;42.23;;;25.27;;
48849;SDS011;63210;53.370;6.770;2022-11-15T09:13:45;36.28;;;22.65;;
48849;SDS011;63210;53.370;6.770;2022-11-15T09:16:10;37.65;;;25.20;;
48849;SDS011;63210;53.370;6.770;2022-11-15T09:18:37;41.88;;;27.13;;
48849;SDS011;63210;53.370;6.770;2022-11-15T09:21:02;38.73;;;23.40;;
48849;SDS011;63210;53.370;6.770;2022-11-15T09:23:28;39.30;;;24.42;;
48849;SDS011;63210;53.370;6.770;2022-11-15T09:25:58;32.97;;;21.02;;
48849;SDS011;63210;53.370;6.770;2022-11-15T09:28:23;34.03;;;24.73;;
48849;SDS011;63210;53.370;6.770;2022-11-15T09:30:48;36.80;;;22.40;;
48849;SDS011;63210;53.370;6.770;2022-11-15T09:33:13;31.63;;;19.93;;
48849;SDS011;63210;53.370;6.770;2022-11-15T09:35:39;35.55;;;23.08;;
48849;SDS011;63210;53.370;6.770;2022-11-15T09:38:05;58.03;;;44.15;;
48849;SDS011;63210;53.370;6.770;2022-11-15T09:40:31;37.13;;;26.92;;
48849;SDS011;63210;53.370;6.770;2022-11-15T09:43:13;34.35;;;20.85;;
48849;SDS011;63210;53.370;6.770;2022-11-15T09:45:55;31.83;;;21.48;;
48849;SDS011;63210;53.370;6.770;2022-11-15T09:50:51;32.20;;;20.02;;
48849;SDS011;63210;53.370;6.770;2022-11-15T09:56:01;28.42;;;18.85;;
48849;SDS011;63210;53.370;6.770;2022-11-15T09:58:35;27.25;;;19.02;;
48849;SDS011;63210;53.370;6.770;2022-11-15T10:01:03;33.08;;;20.00;;
48849;SDS011;63210;53.370;6.770;2022-11-15T10:03:30;26.48;;;17.80;;
48849;SDS011;63210;53.370;6.770;2022-11-15T10:06:00;29.70;;;19.90;;
48849;SDS011;63210;53.370;6.770;2022-11-15T10:11:03;28.23;;;19.38;;
48849;SDS011;63210;53.370;6.770;2022-11-15T10:13:31;29.63;;;20.20;;
48849;SDS011;63210;53.370;6.770;2022-11-15T10:16:04;27.88;;;18.83;;
48849;SDS011;63210;53.370;6.770;2022-11-15T10:18:42;28.33;;;20.88;;
48849;SDS011;63210;53.370;6.770;2022-11-15T10:21:14;31.25;;;19.85;;
48849;SDS011;63210;53.370;6.770;2022-11-15T10:23:40;27.65;;;17.75;;
48849;SDS011;63210;53.370;6.770;2022-11-15T10:26:07;28.52;;;19.25;;
48849;SDS011;63210;53.370;6.770;2022-11-15T10:28:33;25.95;;;18.60;;
48849;SDS011;63210;53.370;6.770;2022-11-15T10:30:59;36.38;;;26.25;;
48849;SDS011;63210;53.370;6.770;2022-11-15T10:41:38;29.97;;;20.30;;
48849;SDS011;63210;53.370;6.770;2022-11-15T10:46:32;32.92;;;21.70;;
48849;SDS011;63210;53.370;6.770;2022-11-15T10:51:46;35.30;;;25.20;;
48849;SDS011;63210;53.370;6.770;2022-11-15T10:54:12;38.60;;;26.90;;
48849;SDS011;63210;53.370;6.770;2022-11-15T10:56:39;37.92;;;26.52;;
48849;SDS011;63210;53.370;6.770;2022-11-15T10:59:09;45.88;;;35.03;;
48849;SDS011;63210;53.370;6.770;2022-11-15T11:01:45;35.55;;;24.92;;
48849;SDS011;63210;53.370;6.770;2022-11-15T11:04:10;50.90;;;30.35;;
48849;SDS011;63210;53.370;6.770;2022-11-15T11:06:56;35.90;;;27.25;;
48849;SDS011;63210;53.370;6.770;2022-11-15T11:09:23;130.38;;;82.00;;
48849;SDS011;63210;53.370;6.770;2022-11-15T11:11:49;111.57;;;99.53;;
48849;SDS011;63210;53.370;6.770;2022-11-15T11:17:09;37.70;;;25.35;;
48849;SDS011;63210;53.370;6.770;2022-11-15T11:35:53;35.10;;;25.85;;
48849;SDS011;63210;53.370;6.770;2022-11-15T11:38:38;39.55;;;28.10;;
48849;SDS011;63210;53.370;6.770;2022-11-15T11:46:21;46.45;;;30.40;;
48849;SDS011;63210;53.370;6.770;2022-11-15T11:48:51;46.10;;;27.05;;
48849;SDS011;63210;53.370;6.770;2022-11-15T11:51:33;47.00;;;28.17;;
48849;SDS011;63210;53.370;6.770;2022-11-15T11:54:10;50.88;;;27.80;;
48849;SDS011;63210;53.370;6.770;2022-11-15T11:56:37;58.53;;;29.35;;
48849;SDS011;63210;53.370;6.770;2022-11-15T11:59:15;60.58;;;32.25;;
48849;SDS011;63210;53.370;6.770;2022-11-15T12:01:42;58.75;;;30.35;;
48849;SDS011;63210;53.370;6.770;2022-11-15T12:06:53;49.30;;;33.47;;
48849;SDS011;63210;53.370;6.770;2022-11-15T12:11:55;43.60;;;29.40;;
48849;SDS011;63210;53.370;6.770;2022-11-15T12:14:33;43.55;;;29.80;;
48849;SDS011;63210;53.370;6.770;2022-11-15T12:17:01;42.22;;;27.83;;
48849;SDS011;63210;53.370;6.770;2022-11-15T12:19:26;36.08;;;24.55;;
48849;SDS011;63210;53.370;6.770;2022-11-15T12:21:54;33.42;;;25.75;;
48849;SDS011;63210;53.370;6.770;2022-11-15T12:24:23;37.55;;;26.23;;
48849;SDS011;63210;53.370;6.770;2022-11-15T12:26:51;31.05;;;23.33;;
48849;SDS011;63210;53.370;6.770;2022-11-15T12:29:24;31.20;;;23.13;;
48849;SDS011;63210;53.370;6.770;2022-11-15T12:31:51;26.48;;;21.27;;
48849;SDS011;63210;53.370;6.770;2022-11-15T12:36:46;24.25;;;19.67;;
48849;SDS011;63210;53.370;6.770;2022-11-15T12:39:12;24.17;;;19.80;;
48849;SDS011;63210;53.370;6.770;2022-11-15T12:41:38;24.60;;;19.08;;
48849;SDS011;63210;53.370;6.770;2022-11-15T12:44:04;22.60;;;17.80;;
48849;SDS011;63210;53.370;6.770;2022-11-15T12:51:21;18.55;;;15.02;;
48849;SDS011;63210;53.370;6.770;2022-11-15T12:53:47;14.18;;;12.05;;
48849;SDS011;63210;53.370;6.770;2022-11-15T13:01:08;12.95;;;11.20;;
48849;SDS011;63210;53.370;6.770;2022-11-15T13:03:34;18.35;;;12.18;;
48849;SDS011;63210;53.370;6.770;2022-11-15T13:06:00;14.15;;;10.82;;
48849;SDS011;63210;53.370;6.770;2022-11-15T13:08:43;16.08;;;10.85;;
48849;SDS011;63210;53.370;6.770;2022-11-15T13:13:52;12.93;;;10.00;;
48849;SDS011;63210;53.370;6.770;2022-11-15T13:16:19;13.77;;;9.20;;
48849;SDS011;63210;53.370;6.770;2022-11-15T13:18:52;11.80;;;7.90;;
48849;SDS011;63210;53.370;6.770;2022-11-15T13:21:19;11.23;;;7.47;;
48849;SDS011;63210;53.370;6.770;2022-11-15T13:24:03;17.55;;;10.30;;
48849;SDS011;63210;53.370;6.770;2022-11-15T13:26:28;13.07;;;7.40;;
48849;SDS011;63210;53.370;6.770;2022-11-15T13:28:54;12.80;;;7.70;;
48849;SDS011;63210;53.370;6.770;2022-11-15T13:31:25;9.70;;;7.00;;
48849;SDS011;63210;53.370;6.770;2022-11-15T13:33:50;12.60;;;7.40;;
48849;SDS011;63210;53.370;6.770;2022-11-15T13:38:44;11.45;;;6.63;;
48849;SDS011;63210;53.370;6.770;2022-11-15T13:41:23;13.38;;;6.95;;
48849;SDS011;63210;53.370;6.770;2022-11-15T13:43:49;12.75;;;7.22;;
48849;SDS011;63210;53.370;6.770;2022-11-15T13:46:30;10.00;;;6.00;;
48849;SDS011;63210;53.370;6.770;2022-11-15T13:56:43;11.50;;;5.55;;
48849;SDS011;63210;53.370;6.770;2022-11-15T13:59:10;8.85;;;5.38;;
48849;SDS011;63210;53.370;6.770;2022-11-15T14:01:39;8.40;;;5.45;;
48849;SDS011;63210;53.370;6.770;2022-11-15T14:04:09;7.60;;;5.00;;
48849;SDS011;63210;53.370;6.770;2022-11-15T14:06:42;13.02;;;7.05;;
48849;SDS011;63210;53.370;6.770;2022-11-15T14:11:34;10.07;;;6.00;;
48849;SDS011;63210;53.370;6.770;2022-11-15T14:14:09;7.68;;;5.47;;
48849;SDS011;63210;53.370;6.770;2022-11-15T14:16:38;14.32;;;8.70;;
48849;SDS011;63210;53.370;6.770;2022-11-15T14:19:04;9.30;;;6.07;;
48849;SDS011;63210;53.370;6.770;2022-11-15T14:21:30;8.70;;;5.95;;
48849;SDS011;63210;53.370;6.770;2022-11-15T14:24:18;13.80;;;6.80;;
48849;SDS011;63210;53.370;6.770;2022-11-15T14:26:43;13.43;;;6.53;;
48849;SDS011;63210;53.370;6.770;2022-11-15T14:29:27;9.45;;;5.70;;
48849;SDS011;63210;53.370;6.770;2022-11-15T14:31:53;10.50;;;5.43;;
48849;SDS011;63210;53.370;6.770;2022-11-15T14:34:19;14.90;;;7.57;;
48849;SDS011;63210;53.370;6.770;2022-11-15T14:36:46;8.88;;;6.07;;
48849;SDS011;63210;53.370;6.770;2022-11-15T14:39:11;24.02;;;8.52;;
48849;SDS011;63210;53.370;6.770;2022-11-15T14:41:37;15.03;;;6.87;;
48849;SDS011;63210;53.370;6.770;2022-11-15T14:44:05;10.25;;;6.10;;
48849;SDS011;63210;53.370;6.770;2022-11-15T14:46:30;8.90;;;6.03;;
48849;SDS011;63210;53.370;6.770;2022-11-15T14:48:56;19.52;;;9.07;;
48849;SDS011;63210;53.370;6.770;2022-11-15T14:51:21;12.63;;;8.60;;
48849;SDS011;63210;53.370;6.770;2022-11-15T14:53:46;12.27;;;7.10;;
48849;SDS011;63210;53.370;6.770;2022-11-15T14:56:12;8.82;;;6.25;;
48849;SDS011;63210;53.370;6.770;2022-11-15T14:58:37;8.65;;;6.20;;
48849;SDS011;63210;53.370;6.770;2022-11-15T15:01:09;9.35;;;5.60;;
48849;SDS011;63210;53.370;6.770;2022-11-15T15:03:35;25.30;;;9.60;;
48849;SDS011;63210;53.370;6.770;2022-11-15T15:06:01;9.55;;;6.43;;
48849;SDS011;63210;53.370;6.770;2022-11-15T15:08:26;16.00;;;8.30;;
48849;SDS011;63210;53.370;6.770;2022-11-15T15:10:51;10.53;;;6.70;;
48849;SDS011;63210;53.370;6.770;2022-11-15T15:13:17;9.33;;;6.03;;
48849;SDS011;63210;53.370;6.770;2022-11-15T15:15:43;8.68;;;6.55;;
48849;SDS011;63210;53.370;6.770;2022-11-15T15:18:08;9.68;;;5.68;;
48849;SDS011;63210;53.370;6.770;2022-11-15T15:20:36;8.95;;;5.40;;
48849;SDS011;63210;53.370;6.770;2022-11-15T15:23:03;9.13;;;5.30;;
48849;SDS011;63210;53.370;6.770;2022-11-15T15:27:53;8.90;;;5.50;;
48849;SDS011;63210;53.370;6.770;2022-11-15T15:30:20;7.25;;;5.43;;
48849;SDS011;63210;53.370;6.770;2022-11-15T15:32:45;6.45;;;5.28;;
48849;SDS011;63210;53.370;6.770;2022-11-15T15:35:13;13.55;;;6.00;;
48849;SDS011;63210;53.370;6.770;2022-11-15T15:37:39;8.43;;;5.47;;
48849;SDS011;63210;53.370;6.770;2022-11-15T15:40:10;7.70;;;5.05;;
48849;SDS011;63210;53.370;6.770;2022-11-15T15:42:37;7.32;;;4.63;;
48849;SDS011;63210;53.370;6.770;2022-11-15T15:45:02;7.77;;;4.80;;
48849;SDS011;63210;53.370;6.770;2022-11-15T15:47:28;9.57;;;4.32;;
48849;SDS011;63210;53.370;6.770;2022-11-15T15:49:53;8.07;;;4.80;;
48849;SDS011;63210;53.370;6.770;2022-11-15T15:52:18;6.97;;;4.70;;
48849;SDS011;63210;53.370;6.770;2022-11-15T15:54:44;5.80;;;4.68;;
48849;SDS011;63210;53.370;6.770;2022-11-15T15:57:11;8.32;;;4.75;;
48849;SDS011;63210;53.370;6.770;2022-11-15T15:59:36;7.30;;;4.82;;
48849;SDS011;63210;53.370;6.770;2022-11-15T16:02:02;8.33;;;5.17;;
48849;SDS011;63210;53.370;6.770;2022-11-15T16:04:27;7.60;;;4.30;;
48849;SDS011;63210;53.370;6.770;2022-11-15T16:06:57;8.13;;;4.90;;
48849;SDS011;63210;53.370;6.770;2022-11-15T16:09:22;6.38;;;4.85;;
48849;SDS011;63210;53.370;6.770;2022-11-15T16:12:07;9.50;;;5.35;;
48849;SDS011;63210;53.370;6.770;2022-11-15T16:14:33;6.88;;;4.85;;
48849;SDS011;63210;53.370;6.770;2022-11-15T16:16:58;5.27;;;4.73;;
48849;SDS011;63210;53.370;6.770;2022-11-15T16:19:23;6.07;;;4.90;;
48849;SDS011;63210;53.370;6.770;2022-11-15T16:21:48;8.20;;;5.25;;
48849;SDS011;63210;53.370;6.770;2022-11-15T16:24:14;6.07;;;5.47;;
48849;SDS011;63210;53.370;6.770;2022-11-15T16:26:39;7.70;;;5.23;;
48849;SDS011;63210;53.370;6.770;2022-11-15T16:29:04;7.70;;;5.17;;
48849;SDS011;63210;53.370;6.770;2022-11-15T16:31:31;6.03;;;5.45;;
48849;SDS011;63210;53.370;6.770;2022-11-15T16:33:57;8.77;;;5.68;;
48849;SDS011;63210;53.370;6.770;2022-11-15T16:36:23;6.30;;;5.20;;